sensor_id;sensor_type;location;lat;lon;timestamp;P1;durP1;ratioP1;P2;durP2;ratioP2
10201;SDS011;5143;42.584;23.164;2023-08-20T00:01:30;8.30;;;4.10;;
10201;SDS011;5143;42.584;23.164;2023-08-20T00:03:57;4.20;;;3.73;;
10201;SDS011;5143;42.584;23.164;2023-08-20T00:06:24;5.83;;;4.00;;
10201;SDS011;5143;42.584;23.164;2023-08-20T00:08:53;5.67;;;4.33;;
10201;SDS011;5143;42.584;23.164;2023-08-20T00:11:20;4.60;;;4.07;;
10201;SDS011;5143;42.584;23.164;2023-08-20T00:13:46;5.70;;;4.07;;
10201;SDS011;5143;42.584;23.164;2023-08-20T00:16:14;4.40;;;4.00;;
10201;SDS011;5143;42.584;23.164;2023-08-20T00:18:41;5.97;;;4.37;;
10201;SDS011;5143;42.584;23.164;2023-08-20T00:21:09;6.23;;;3.90;;
10201;SDS011;5143;42.584;23.164;2023-08-20T00:23:36;5.27;;;4.10;;
10201;SDS011;5143;42.584;23.164;2023-08-20T00:26:05;5.83;;;4.03;;
10201;SDS011;5143;42.584;23.164;2023-08-20T00:28:32;4.90;;;3.83;;
10201;SDS011;5143;42.584;23.164;2023-08-20T00:31:01;4.20;;;3.80;;
10201;SDS011;5143;42.584;23.164;2023-08-20T00:33:28;4.83;;;4.33;;
10201;SDS011;5143;42.584;23.164;2023-08-20T00:35:55;4.80;;;4.03;;
10201;SDS011;5143;42.584;23.164;2023-08-20T00:38:22;5.43;;;4.10;;
10201;SDS011;5143;42.584;23.164;2023-08-20T00:40:49;4.67;;;4.17;;
10201;SDS011;5143;42.584;23.164;2023-08-20T00:43:17;8.07;;;3.97;;
10201;SDS011;5143;42.584;23.164;2023-08-20T00:45:44;6.13;;;4.27;;
10201;SDS011;5143;42.584;23.164;2023-08-20T00:48:11;6.97;;;4.43;;
10201;SDS011;5143;42.584;23.164;2023-08-20T00:50:38;6.73;;;4.50;;
10201;SDS011;5143;42.584;23.164;2023-08-20T00:53:06;4.63;;;3.97;;
10201;SDS011;5143;42.584;23.164;2023-08-20T00:55:34;4.93;;;4.40;;
10201;SDS011;5143;42.584;23.164;2023-08-20T00:58:02;4.47;;;3.83;;
10201;SDS011;5143;42.584;23.164;2023-08-20T01:00:30;4.37;;;3.87;;
10201;SDS011;5143;42.584;23.164;2023-08-20T01:02:58;5.50;;;4.40;;
10201;SDS011;5143;42.584;23.164;2023-08-20T01:05:24;7.17;;;4.03;;
10201;SDS011;5143;42.584;23.164;2023-08-20T01:07:58;4.97;;;3.60;;
10201;SDS011;5143;42.584;23.164;2023-08-20T01:10:40;9.70;;;3.97;;
10201;SDS011;5143;42.584;23.164;2023-08-20T01:13:16;5.60;;;3.90;;
10201;SDS011;5143;42.584;23.164;2023-08-20T01:15:45;7.93;;;4.00;;
10201;SDS011;5143;42.584;23.164;2023-08-20T01:18:12;6.03;;;4.27;;
10201;SDS011;5143;42.584;23.164;2023-08-20T01:20:39;5.23;;;4.17;;
10201;SDS011;5143;42.584;23.164;2023-08-20T01:26:19;4.30;;;3.90;;
10201;SDS011;5143;42.584;23.164;2023-08-20T01:28:54;4.63;;;4.23;;
10201;SDS011;5143;42.584;23.164;2023-08-20T01:31:21;4.53;;;4.13;;
10201;SDS011;5143;42.584;23.164;2023-08-20T01:33:50;8.57;;;4.27;;
10201;SDS011;5143;42.584;23.164;2023-08-20T01:36:17;6.77;;;4.60;;
10201;SDS011;5143;42.584;23.164;2023-08-20T01:38:44;7.07;;;4.47;;
10201;SDS011;5143;42.584;23.164;2023-08-20T01:41:11;5.90;;;4.33;;
10201;SDS011;5143;42.584;23.164;2023-08-20T01:43:38;6.30;;;4.13;;
10201;SDS011;5143;42.584;23.164;2023-08-20T01:46:06;5.97;;;3.70;;
10201;SDS011;5143;42.584;23.164;2023-08-20T01:48:35;6.03;;;4.47;;
10201;SDS011;5143;42.584;23.164;2023-08-20T01:51:01;7.80;;;4.27;;
10201;SDS011;5143;42.584;23.164;2023-08-20T01:53:28;4.93;;;4.43;;
10201;SDS011;5143;42.584;23.164;2023-08-20T01:55:55;7.97;;;4.53;;
10201;SDS011;5143;42.584;23.164;2023-08-20T01:58:22;6.70;;;4.40;;
10201;SDS011;5143;42.584;23.164;2023-08-20T02:00:50;4.37;;;3.80;;
10201;SDS011;5143;42.584;23.164;2023-08-20T02:03:19;8.57;;;3.97;;
10201;SDS011;5143;42.584;23.164;2023-08-20T02:05:46;5.50;;;4.30;;
10201;SDS011;5143;42.584;23.164;2023-08-20T02:08:12;5.33;;;4.27;;
10201;SDS011;5143;42.584;23.164;2023-08-20T02:10:39;5.73;;;3.90;;
10201;SDS011;5143;42.584;23.164;2023-08-20T02:13:07;9.87;;;4.10;;
10201;SDS011;5143;42.584;23.164;2023-08-20T02:15:33;6.03;;;4.40;;
10201;SDS011;5143;42.584;23.164;2023-08-20T02:18:01;7.23;;;3.93;;
10201;SDS011;5143;42.584;23.164;2023-08-20T02:20:32;9.47;;;4.67;;
10201;SDS011;5143;42.584;23.164;2023-08-20T02:22:58;7.20;;;4.10;;
10201;SDS011;5143;42.584;23.164;2023-08-20T02:25:25;5.23;;;4.00;;
10201;SDS011;5143;42.584;23.164;2023-08-20T02:27:52;7.03;;;4.50;;
10201;SDS011;5143;42.584;23.164;2023-08-20T02:30:19;9.63;;;5.03;;
10201;SDS011;5143;42.584;23.164;2023-08-20T02:32:46;8.73;;;4.70;;
10201;SDS011;5143;42.584;23.164;2023-08-20T02:35:13;4.83;;;4.20;;
10201;SDS011;5143;42.584;23.164;2023-08-20T02:37:43;5.63;;;4.33;;
10201;SDS011;5143;42.584;23.164;2023-08-20T02:40:10;6.07;;;4.50;;
10201;SDS011;5143;42.584;23.164;2023-08-20T02:42:39;7.37;;;4.80;;
10201;SDS011;5143;42.584;23.164;2023-08-20T02:45:06;6.63;;;4.63;;
10201;SDS011;5143;42.584;23.164;2023-08-20T02:47:35;7.83;;;4.40;;
10201;SDS011;5143;42.584;23.164;2023-08-20T02:50:01;5.23;;;4.23;;
10201;SDS011;5143;42.584;23.164;2023-08-20T02:52:29;5.73;;;4.53;;
10201;SDS011;5143;42.584;23.164;2023-08-20T02:54:57;5.57;;;4.53;;
10201;SDS011;5143;42.584;23.164;2023-08-20T02:57:24;7.10;;;4.27;;
10201;SDS011;5143;42.584;23.164;2023-08-20T02:59:51;5.63;;;4.60;;
10201;SDS011;5143;42.584;23.164;2023-08-20T03:02:17;7.27;;;4.60;;
10201;SDS011;5143;42.584;23.164;2023-08-20T03:04:44;7.07;;;4.83;;
10201;SDS011;5143;42.584;23.164;2023-08-20T03:07:11;6.53;;;4.07;;
10201;SDS011;5143;42.584;23.164;2023-08-20T03:09:38;6.90;;;4.70;;
10201;SDS011;5143;42.584;23.164;2023-08-20T03:12:07;9.23;;;5.23;;
10201;SDS011;5143;42.584;23.164;2023-08-20T03:14:34;9.60;;;4.60;;
10201;SDS011;5143;42.584;23.164;2023-08-20T03:17:00;7.47;;;4.57;;
10201;SDS011;5143;42.584;23.164;2023-08-20T03:19:29;9.57;;;4.57;;
10201;SDS011;5143;42.584;23.164;2023-08-20T03:21:59;6.63;;;4.43;;
10201;SDS011;5143;42.584;23.164;2023-08-20T03:24:26;6.23;;;4.73;;
10201;SDS011;5143;42.584;23.164;2023-08-20T03:26:53;6.47;;;4.73;;
10201;SDS011;5143;42.584;23.164;2023-08-20T03:29:21;25.73;;;6.10;;
10201;SDS011;5143;42.584;23.164;2023-08-20T03:31:48;8.90;;;5.53;;
10201;SDS011;5143;42.584;23.164;2023-08-20T03:34:15;6.67;;;4.60;;
10201;SDS011;5143;42.584;23.164;2023-08-20T03:36:42;6.67;;;4.93;;
10201;SDS011;5143;42.584;23.164;2023-08-20T03:39:08;10.00;;;4.53;;
10201;SDS011;5143;42.584;23.164;2023-08-20T03:41:35;7.57;;;4.90;;
10201;SDS011;5143;42.584;23.164;2023-08-20T03:44:02;8.90;;;4.97;;
10201;SDS011;5143;42.584;23.164;2023-08-20T03:46:31;6.73;;;5.00;;
10201;SDS011;5143;42.584;23.164;2023-08-20T03:48:58;8.07;;;5.23;;
10201;SDS011;5143;42.584;23.164;2023-08-20T03:51:25;5.07;;;4.57;;
10201;SDS011;5143;42.584;23.164;2023-08-20T03:53:52;5.70;;;4.87;;
10201;SDS011;5143;42.584;23.164;2023-08-20T03:56:19;7.47;;;4.47;;
10201;SDS011;5143;42.584;23.164;2023-08-20T03:58:45;7.97;;;4.97;;
10201;SDS011;5143;42.584;23.164;2023-08-20T04:01:12;9.43;;;4.97;;
10201;SDS011;5143;42.584;23.164;2023-08-20T04:03:40;9.80;;;4.83;;
10201;SDS011;5143;42.584;23.164;2023-08-20T04:06:07;7.73;;;4.90;;
10201;SDS011;5143;42.584;23.164;2023-08-20T04:08:34;10.97;;;4.47;;
10201;SDS011;5143;42.584;23.164;2023-08-20T04:11:01;8.27;;;5.00;;
10201;SDS011;5143;42.584;23.164;2023-08-20T04:13:28;6.13;;;4.60;;
10201;SDS011;5143;42.584;23.164;2023-08-20T04:15:55;7.43;;;5.03;;
10201;SDS011;5143;42.584;23.164;2023-08-20T04:18:22;8.17;;;4.83;;
10201;SDS011;5143;42.584;23.164;2023-08-20T04:20:51;7.43;;;5.03;;
10201;SDS011;5143;42.584;23.164;2023-08-20T04:23:23;6.23;;;4.70;;
10201;SDS011;5143;42.584;23.164;2023-08-20T04:25:50;7.40;;;4.80;;
10201;SDS011;5143;42.584;23.164;2023-08-20T04:28:17;6.70;;;4.83;;
10201;SDS011;5143;42.584;23.164;2023-08-20T04:30:44;6.73;;;5.23;;
10201;SDS011;5143;42.584;23.164;2023-08-20T04:33:11;8.10;;;5.13;;
10201;SDS011;5143;42.584;23.164;2023-08-20T04:35:38;11.77;;;4.57;;
10201;SDS011;5143;42.584;23.164;2023-08-20T04:38:07;5.43;;;4.40;;
10201;SDS011;5143;42.584;23.164;2023-08-20T04:40:33;7.00;;;4.60;;
10201;SDS011;5143;42.584;23.164;2023-08-20T04:43:00;5.97;;;4.83;;
10201;SDS011;5143;42.584;23.164;2023-08-20T04:45:27;5.47;;;4.70;;
10201;SDS011;5143;42.584;23.164;2023-08-20T04:47:54;8.93;;;4.47;;
10201;SDS011;5143;42.584;23.164;2023-08-20T04:50:21;11.77;;;5.27;;
10201;SDS011;5143;42.584;23.164;2023-08-20T04:52:47;6.90;;;4.57;;
10201;SDS011;5143;42.584;23.164;2023-08-20T04:55:16;5.53;;;4.10;;
10201;SDS011;5143;42.584;23.164;2023-08-20T04:57:42;6.50;;;4.93;;
10201;SDS011;5143;42.584;23.164;2023-08-20T05:00:09;6.47;;;4.53;;
10201;SDS011;5143;42.584;23.164;2023-08-20T05:02:37;6.23;;;4.07;;
10201;SDS011;5143;42.584;23.164;2023-08-20T05:05:04;6.40;;;3.67;;
10201;SDS011;5143;42.584;23.164;2023-08-20T05:07:32;6.73;;;3.67;;
10201;SDS011;5143;42.584;23.164;2023-08-20T05:09:59;4.47;;;3.67;;
10201;SDS011;5143;42.584;23.164;2023-08-20T05:12:27;6.95;;;3.72;;
10201;SDS011;5143;42.584;23.164;2023-08-20T05:14:54;7.75;;;3.22;;
10201;SDS011;5143;42.584;23.164;2023-08-20T05:17:21;5.30;;;3.13;;
10201;SDS011;5143;42.584;23.164;2023-08-20T05:19:48;11.13;;;2.92;;
10201;SDS011;5143;42.584;23.164;2023-08-20T05:22:15;9.38;;;3.33;;
10201;SDS011;5143;42.584;23.164;2023-08-20T05:24:42;7.03;;;3.63;;
10201;SDS011;5143;42.584;23.164;2023-08-20T05:27:09;6.00;;;2.95;;
10201;SDS011;5143;42.584;23.164;2023-08-20T05:29:41;5.38;;;3.05;;
10201;SDS011;5143;42.584;23.164;2023-08-20T05:32:08;2.75;;;2.47;;
10201;SDS011;5143;42.584;23.164;2023-08-20T05:34:35;4.78;;;2.65;;
10201;SDS011;5143;42.584;23.164;2023-08-20T05:37:02;4.07;;;2.78;;
10201;SDS011;5143;42.584;23.164;2023-08-20T05:39:29;5.13;;;2.83;;
10201;SDS011;5143;42.584;23.164;2023-08-20T05:41:57;3.33;;;2.53;;
10201;SDS011;5143;42.584;23.164;2023-08-20T05:44:24;4.40;;;2.60;;
10201;SDS011;5143;42.584;23.164;2023-08-20T05:46:52;6.15;;;3.17;;
10201;SDS011;5143;42.584;23.164;2023-08-20T05:49:18;10.05;;;3.38;;
10201;SDS011;5143;42.584;23.164;2023-08-20T05:51:45;5.43;;;3.25;;
10201;SDS011;5143;42.584;23.164;2023-08-20T05:54:12;8.73;;;3.08;;
10201;SDS011;5143;42.584;23.164;2023-08-20T05:56:39;4.88;;;2.97;;
10201;SDS011;5143;42.584;23.164;2023-08-20T05:59:06;4.75;;;3.28;;
10201;SDS011;5143;42.584;23.164;2023-08-20T06:01:32;5.35;;;3.45;;
10201;SDS011;5143;42.584;23.164;2023-08-20T06:04:01;5.22;;;3.30;;
10201;SDS011;5143;42.584;23.164;2023-08-20T06:06:28;8.93;;;3.67;;
10201;SDS011;5143;42.584;23.164;2023-08-20T06:08:55;5.85;;;3.53;;
10201;SDS011;5143;42.584;23.164;2023-08-20T06:11:21;11.43;;;2.75;;
10201;SDS011;5143;42.584;23.164;2023-08-20T06:13:48;4.90;;;3.10;;
10201;SDS011;5143;42.584;23.164;2023-08-20T06:16:15;6.88;;;3.20;;
10201;SDS011;5143;42.584;23.164;2023-08-20T06:18:42;5.03;;;3.40;;
10201;SDS011;5143;42.584;23.164;2023-08-20T06:21:11;4.25;;;3.03;;
10201;SDS011;5143;42.584;23.164;2023-08-20T06:23:38;4.50;;;2.92;;
10201;SDS011;5143;42.584;23.164;2023-08-20T06:26:05;5.45;;;2.65;;
10201;SDS011;5143;42.584;23.164;2023-08-20T06:28:31;3.92;;;2.58;;
10201;SDS011;5143;42.584;23.164;2023-08-20T06:30:59;7.95;;;2.92;;
10201;SDS011;5143;42.584;23.164;2023-08-20T06:33:26;3.60;;;2.50;;
10201;SDS011;5143;42.584;23.164;2023-08-20T06:35:52;5.60;;;2.60;;
10201;SDS011;5143;42.584;23.164;2023-08-20T06:38:21;3.00;;;2.40;;
10201;SDS011;5143;42.584;23.164;2023-08-20T06:40:47;5.88;;;2.63;;
10201;SDS011;5143;42.584;23.164;2023-08-20T06:43:14;7.70;;;2.90;;
10201;SDS011;5143;42.584;23.164;2023-08-20T06:45:41;4.43;;;2.38;;
10201;SDS011;5143;42.584;23.164;2023-08-20T06:48:07;3.95;;;2.63;;
10201;SDS011;5143;42.584;23.164;2023-08-20T06:50:34;5.30;;;2.50;;
10201;SDS011;5143;42.584;23.164;2023-08-20T06:53:01;3.42;;;2.45;;
10201;SDS011;5143;42.584;23.164;2023-08-20T06:55:29;3.63;;;2.47;;
10201;SDS011;5143;42.584;23.164;2023-08-20T06:57:56;3.10;;;2.55;;
10201;SDS011;5143;42.584;23.164;2023-08-20T07:00:22;4.63;;;2.63;;
10201;SDS011;5143;42.584;23.164;2023-08-20T07:02:49;5.25;;;2.75;;
10201;SDS011;5143;42.584;23.164;2023-08-20T07:05:16;5.18;;;2.72;;
10201;SDS011;5143;42.584;23.164;2023-08-20T07:07:43;4.53;;;2.80;;
10201;SDS011;5143;42.584;23.164;2023-08-20T07:10:11;5.03;;;2.70;;
10201;SDS011;5143;42.584;23.164;2023-08-20T07:12:39;6.15;;;2.42;;
10201;SDS011;5143;42.584;23.164;2023-08-20T07:15:09;4.00;;;2.22;;
10201;SDS011;5143;42.584;23.164;2023-08-20T07:17:36;5.00;;;2.58;;
10201;SDS011;5143;42.584;23.164;2023-08-20T07:20:04;6.90;;;2.55;;
10201;SDS011;5143;42.584;23.164;2023-08-20T07:22:32;4.05;;;2.30;;
10201;SDS011;5143;42.584;23.164;2023-08-20T07:24:59;5.97;;;2.60;;
10201;SDS011;5143;42.584;23.164;2023-08-20T07:27:25;6.82;;;2.38;;
10201;SDS011;5143;42.584;23.164;2023-08-20T07:29:54;4.40;;;2.40;;
10201;SDS011;5143;42.584;23.164;2023-08-20T07:32:21;4.93;;;2.30;;
10201;SDS011;5143;42.584;23.164;2023-08-20T07:34:48;7.00;;;2.47;;
10201;SDS011;5143;42.584;23.164;2023-08-20T07:37:15;6.53;;;2.25;;
10201;SDS011;5143;42.584;23.164;2023-08-20T07:39:42;3.70;;;2.17;;
10201;SDS011;5143;42.584;23.164;2023-08-20T07:42:09;4.53;;;2.10;;
10201;SDS011;5143;42.584;23.164;2023-08-20T07:44:37;5.88;;;2.30;;
10201;SDS011;5143;42.584;23.164;2023-08-20T07:47:05;3.55;;;1.88;;
10201;SDS011;5143;42.584;23.164;2023-08-20T07:49:32;4.40;;;2.20;;
10201;SDS011;5143;42.584;23.164;2023-08-20T07:51:59;5.65;;;2.03;;
10201;SDS011;5143;42.584;23.164;2023-08-20T07:54:26;6.43;;;1.88;;
10201;SDS011;5143;42.584;23.164;2023-08-20T07:56:53;3.47;;;2.00;;
10201;SDS011;5143;42.584;23.164;2023-08-20T07:59:20;3.75;;;2.08;;
10201;SDS011;5143;42.584;23.164;2023-08-20T08:01:47;4.93;;;2.30;;
10201;SDS011;5143;42.584;23.164;2023-08-20T08:04:16;6.28;;;2.75;;
10201;SDS011;5143;42.584;23.164;2023-08-20T08:06:42;6.93;;;2.25;;
10201;SDS011;5143;42.584;23.164;2023-08-20T08:09:19;4.10;;;2.25;;
10201;SDS011;5143;42.584;23.164;2023-08-20T08:11:47;9.00;;;2.58;;
10201;SDS011;5143;42.584;23.164;2023-08-20T08:14:14;6.97;;;2.50;;
10201;SDS011;5143;42.584;23.164;2023-08-20T08:16:41;4.15;;;2.50;;
10201;SDS011;5143;42.584;23.164;2023-08-20T08:19:08;6.00;;;2.35;;
10201;SDS011;5143;42.584;23.164;2023-08-20T08:21:36;3.78;;;2.40;;
10201;SDS011;5143;42.584;23.164;2023-08-20T08:24:03;3.72;;;2.90;;
10201;SDS011;5143;42.584;23.164;2023-08-20T08:26:34;3.50;;;2.95;;
10201;SDS011;5143;42.584;23.164;2023-08-20T08:29:01;4.35;;;2.53;;
10201;SDS011;5143;42.584;23.164;2023-08-20T08:31:28;6.22;;;2.72;;
10201;SDS011;5143;42.584;23.164;2023-08-20T08:33:55;6.85;;;2.92;;
10201;SDS011;5143;42.584;23.164;2023-08-20T08:36:21;5.40;;;2.95;;
10201;SDS011;5143;42.584;23.164;2023-08-20T08:38:51;7.88;;;2.80;;
10201;SDS011;5143;42.584;23.164;2023-08-20T08:41:18;3.97;;;3.00;;
10201;SDS011;5143;42.584;23.164;2023-08-20T08:43:48;5.78;;;2.83;;
10201;SDS011;5143;42.584;23.164;2023-08-20T08:46:16;4.90;;;2.97;;
10201;SDS011;5143;42.584;23.164;2023-08-20T08:48:43;8.15;;;2.97;;
10201;SDS011;5143;42.584;23.164;2023-08-20T08:51:12;7.68;;;2.80;;
10201;SDS011;5143;42.584;23.164;2023-08-20T08:53:41;8.00;;;3.08;;
10201;SDS011;5143;42.584;23.164;2023-08-20T08:56:10;4.30;;;3.10;;
10201;SDS011;5143;42.584;23.164;2023-08-20T08:58:37;5.60;;;2.67;;
10201;SDS011;5143;42.584;23.164;2023-08-20T09:01:04;7.00;;;2.75;;
10201;SDS011;5143;42.584;23.164;2023-08-20T09:03:30;3.70;;;2.85;;
10201;SDS011;5143;42.584;23.164;2023-08-20T09:05:58;7.13;;;2.75;;
10201;SDS011;5143;42.584;23.164;2023-08-20T09:08:26;3.95;;;2.45;;
10201;SDS011;5143;42.584;23.164;2023-08-20T09:10:54;7.60;;;2.80;;
10201;SDS011;5143;42.584;23.164;2023-08-20T09:13:24;7.40;;;2.65;;
10201;SDS011;5143;42.584;23.164;2023-08-20T09:15:51;8.77;;;2.80;;
10201;SDS011;5143;42.584;23.164;2023-08-20T09:18:19;3.83;;;2.90;;
10201;SDS011;5143;42.584;23.164;2023-08-20T09:20:47;6.40;;;3.13;;
10201;SDS011;5143;42.584;23.164;2023-08-20T09:23:14;6.15;;;2.70;;
10201;SDS011;5143;42.584;23.164;2023-08-20T09:25:42;5.22;;;2.72;;
10201;SDS011;5143;42.584;23.164;2023-08-20T09:28:10;7.45;;;2.50;;
10201;SDS011;5143;42.584;23.164;2023-08-20T09:30:38;3.92;;;2.88;;
10201;SDS011;5143;42.584;23.164;2023-08-20T09:33:07;5.20;;;2.60;;
10201;SDS011;5143;42.584;23.164;2023-08-20T09:35:36;4.47;;;2.20;;
10201;SDS011;5143;42.584;23.164;2023-08-20T09:38:03;4.40;;;2.63;;
10201;SDS011;5143;42.584;23.164;2023-08-20T09:40:30;4.53;;;2.55;;
10201;SDS011;5143;42.584;23.164;2023-08-20T09:42:57;8.77;;;2.88;;
10201;SDS011;5143;42.584;23.164;2023-08-20T09:45:27;5.22;;;2.70;;
10201;SDS011;5143;42.584;23.164;2023-08-20T09:47:56;4.47;;;2.40;;
10201;SDS011;5143;42.584;23.164;2023-08-20T09:50:25;2.92;;;2.47;;
10201;SDS011;5143;42.584;23.164;2023-08-20T09:52:55;4.55;;;2.40;;
10201;SDS011;5143;42.584;23.164;2023-08-20T09:55:28;5.32;;;2.58;;
10201;SDS011;5143;42.584;23.164;2023-08-20T09:57:59;5.88;;;2.92;;
10201;SDS011;5143;42.584;23.164;2023-08-20T10:00:28;5.68;;;2.40;;
10201;SDS011;5143;42.584;23.164;2023-08-20T10:02:56;4.68;;;2.70;;
10201;SDS011;5143;42.584;23.164;2023-08-20T10:05:24;5.25;;;2.55;;
10201;SDS011;5143;42.584;23.164;2023-08-20T10:07:52;4.32;;;2.30;;
10201;SDS011;5143;42.584;23.164;2023-08-20T10:10:19;4.60;;;2.20;;
10201;SDS011;5143;42.584;23.164;2023-08-20T10:12:46;2.72;;;2.00;;
10201;SDS011;5143;42.584;23.164;2023-08-20T10:15:13;3.20;;;2.10;;
10201;SDS011;5143;42.584;23.164;2023-08-20T10:17:41;6.85;;;2.30;;
10201;SDS011;5143;42.584;23.164;2023-08-20T10:20:12;6.97;;;2.33;;
10201;SDS011;5143;42.584;23.164;2023-08-20T10:22:41;3.40;;;2.25;;
10201;SDS011;5143;42.584;23.164;2023-08-20T10:25:09;4.72;;;2.40;;
10201;SDS011;5143;42.584;23.164;2023-08-20T10:27:38;4.53;;;2.10;;
10201;SDS011;5143;42.584;23.164;2023-08-20T10:30:09;4.07;;;2.20;;
10201;SDS011;5143;42.584;23.164;2023-08-20T10:32:44;3.03;;;2.17;;
10201;SDS011;5143;42.584;23.164;2023-08-20T10:35:17;5.47;;;2.30;;
10201;SDS011;5143;42.584;23.164;2023-08-20T10:38:01;5.55;;;2.22;;
10201;SDS011;5143;42.584;23.164;2023-08-20T10:40:47;15.93;;;2.33;;
10201;SDS011;5143;42.584;23.164;2023-08-20T10:43:26;5.32;;;2.20;;
10201;SDS011;5143;42.584;23.164;2023-08-20T10:46:03;10.30;;;2.90;;
10201;SDS011;5143;42.584;23.164;2023-08-20T10:48:31;3.28;;;2.35;;
10201;SDS011;5143;42.584;23.164;2023-08-20T10:51:06;4.60;;;2.10;;
10201;SDS011;5143;42.584;23.164;2023-08-20T10:53:36;5.38;;;1.95;;
10201;SDS011;5143;42.584;23.164;2023-08-20T10:56:13;2.45;;;1.90;;
10201;SDS011;5143;42.584;23.164;2023-08-20T10:58:42;2.90;;;1.90;;
10201;SDS011;5143;42.584;23.164;2023-08-20T11:01:16;3.85;;;2.03;;
10201;SDS011;5143;42.584;23.164;2023-08-20T11:03:45;5.63;;;2.40;;
10201;SDS011;5143;42.584;23.164;2023-08-20T11:06:15;3.38;;;2.60;;
10201;SDS011;5143;42.584;23.164;2023-08-20T11:08:42;4.20;;;1.80;;
10201;SDS011;5143;42.584;23.164;2023-08-20T11:11:09;8.85;;;2.20;;
10201;SDS011;5143;42.584;23.164;2023-08-20T11:13:38;5.15;;;2.30;;
10201;SDS011;5143;42.584;23.164;2023-08-20T11:16:05;3.28;;;2.15;;
10201;SDS011;5143;42.584;23.164;2023-08-20T11:18:34;5.03;;;2.08;;
10201;SDS011;5143;42.584;23.164;2023-08-20T11:21:01;4.15;;;2.20;;
10201;SDS011;5143;42.584;23.164;2023-08-20T11:23:29;6.75;;;2.22;;
10201;SDS011;5143;42.584;23.164;2023-08-20T11:25:56;2.75;;;2.35;;
10201;SDS011;5143;42.584;23.164;2023-08-20T11:28:27;4.38;;;2.53;;
10201;SDS011;5143;42.584;23.164;2023-08-20T11:30:55;3.17;;;2.00;;
10201;SDS011;5143;42.584;23.164;2023-08-20T11:33:22;2.25;;;2.05;;
10201;SDS011;5143;42.584;23.164;2023-08-20T11:35:51;2.58;;;2.20;;
10201;SDS011;5143;42.584;23.164;2023-08-20T11:38:20;3.45;;;2.28;;
10201;SDS011;5143;42.584;23.164;2023-08-20T11:40:49;4.43;;;2.63;;
10201;SDS011;5143;42.584;23.164;2023-08-20T11:43:16;2.47;;;2.10;;
10201;SDS011;5143;42.584;23.164;2023-08-20T11:45:47;5.18;;;2.53;;
10201;SDS011;5143;42.584;23.164;2023-08-20T11:48:14;3.20;;;2.40;;
10201;SDS011;5143;42.584;23.164;2023-08-20T11:50:42;3.10;;;2.25;;
10201;SDS011;5143;42.584;23.164;2023-08-20T11:53:09;6.22;;;2.63;;
10201;SDS011;5143;42.584;23.164;2023-08-20T11:55:37;9.40;;;2.83;;
10201;SDS011;5143;42.584;23.164;2023-08-20T11:58:07;4.30;;;2.40;;
10201;SDS011;5143;42.584;23.164;2023-08-20T12:00:35;3.58;;;2.30;;
10201;SDS011;5143;42.584;23.164;2023-08-20T12:03:02;8.85;;;2.65;;
10201;SDS011;5143;42.584;23.164;2023-08-20T12:05:30;3.33;;;2.53;;
10201;SDS011;5143;42.584;23.164;2023-08-20T12:07:58;6.35;;;2.80;;
10201;SDS011;5143;42.584;23.164;2023-08-20T12:10:26;2.20;;;2.00;;
10201;SDS011;5143;42.584;23.164;2023-08-20T12:12:54;4.40;;;2.40;;
10201;SDS011;5143;42.584;23.164;2023-08-20T12:15:24;6.90;;;2.67;;
10201;SDS011;5143;42.584;23.164;2023-08-20T12:17:57;5.70;;;2.65;;
10201;SDS011;5143;42.584;23.164;2023-08-20T12:20:26;2.55;;;2.00;;
10201;SDS011;5143;42.584;23.164;2023-08-20T12:22:56;6.13;;;2.45;;
10201;SDS011;5143;42.584;23.164;2023-08-20T12:25:25;5.07;;;2.38;;
10201;SDS011;5143;42.584;23.164;2023-08-20T12:27:53;3.63;;;2.40;;
10201;SDS011;5143;42.584;23.164;2023-08-20T12:30:19;3.67;;;2.30;;
10201;SDS011;5143;42.584;23.164;2023-08-20T12:32:47;5.68;;;2.50;;
10201;SDS011;5143;42.584;23.164;2023-08-20T12:35:14;11.65;;;2.80;;
10201;SDS011;5143;42.584;23.164;2023-08-20T12:37:40;3.08;;;2.28;;
10201;SDS011;5143;42.584;23.164;2023-08-20T12:40:07;4.78;;;2.67;;
10201;SDS011;5143;42.584;23.164;2023-08-20T12:42:37;3.78;;;2.40;;
10201;SDS011;5143;42.584;23.164;2023-08-20T12:45:04;3.33;;;2.42;;
10201;SDS011;5143;42.584;23.164;2023-08-20T12:47:32;6.57;;;2.50;;
10201;SDS011;5143;42.584;23.164;2023-08-20T12:50:00;5.22;;;2.38;;
10201;SDS011;5143;42.584;23.164;2023-08-20T12:52:29;5.43;;;2.28;;
10201;SDS011;5143;42.584;23.164;2023-08-20T12:54:57;4.60;;;2.63;;
10201;SDS011;5143;42.584;23.164;2023-08-20T12:57:24;3.60;;;2.63;;
10201;SDS011;5143;42.584;23.164;2023-08-20T12:59:53;7.30;;;2.15;;
10201;SDS011;5143;42.584;23.164;2023-08-20T13:02:20;6.55;;;2.60;;
10201;SDS011;5143;42.584;23.164;2023-08-20T13:04:47;10.23;;;2.33;;
10201;SDS011;5143;42.584;23.164;2023-08-20T13:07:16;6.80;;;2.53;;
10201;SDS011;5143;42.584;23.164;2023-08-20T13:09:44;4.65;;;2.20;;
10201;SDS011;5143;42.584;23.164;2023-08-20T13:12:11;3.22;;;2.17;;
10201;SDS011;5143;42.584;23.164;2023-08-20T13:14:39;6.18;;;2.42;;
10201;SDS011;5143;42.584;23.164;2023-08-20T13:17:07;2.13;;;1.92;;
10201;SDS011;5143;42.584;23.164;2023-08-20T13:19:35;5.25;;;3.00;;
10201;SDS011;5143;42.584;23.164;2023-08-20T13:22:02;3.17;;;2.40;;
10201;SDS011;5143;42.584;23.164;2023-08-20T13:24:30;5.28;;;2.72;;
10201;SDS011;5143;42.584;23.164;2023-08-20T13:26:57;4.32;;;2.40;;
10201;SDS011;5143;42.584;23.164;2023-08-20T13:29:24;5.30;;;2.70;;
10201;SDS011;5143;42.584;23.164;2023-08-20T13:31:51;4.55;;;2.40;;
10201;SDS011;5143;42.584;23.164;2023-08-20T13:34:18;2.70;;;2.15;;
10201;SDS011;5143;42.584;23.164;2023-08-20T13:36:45;4.68;;;2.42;;
10201;SDS011;5143;42.584;23.164;2023-08-20T13:39:12;3.05;;;2.20;;
10201;SDS011;5143;42.584;23.164;2023-08-20T13:41:41;3.60;;;2.30;;
10201;SDS011;5143;42.584;23.164;2023-08-20T13:44:08;3.85;;;2.25;;
10201;SDS011;5143;42.584;23.164;2023-08-20T13:46:35;2.45;;;2.20;;
10201;SDS011;5143;42.584;23.164;2023-08-20T13:49:02;2.90;;;2.20;;
10201;SDS011;5143;42.584;23.164;2023-08-20T13:51:29;7.10;;;2.35;;
10201;SDS011;5143;42.584;23.164;2023-08-20T13:53:57;3.33;;;2.42;;
10201;SDS011;5143;42.584;23.164;2023-08-20T13:56:24;8.32;;;2.90;;
10201;SDS011;5143;42.584;23.164;2023-08-20T13:58:53;2.63;;;2.35;;
10201;SDS011;5143;42.584;23.164;2023-08-20T14:01:19;5.60;;;2.45;;
10201;SDS011;5143;42.584;23.164;2023-08-20T14:03:46;5.18;;;2.55;;
10201;SDS011;5143;42.584;23.164;2023-08-20T14:06:14;5.47;;;2.42;;
10201;SDS011;5143;42.584;23.164;2023-08-20T14:08:41;4.63;;;2.45;;
10201;SDS011;5143;42.584;23.164;2023-08-20T14:11:08;7.70;;;2.97;;
10201;SDS011;5143;42.584;23.164;2023-08-20T14:13:35;6.45;;;2.20;;
10201;SDS011;5143;42.584;23.164;2023-08-20T14:16:04;3.13;;;2.22;;
10201;SDS011;5143;42.584;23.164;2023-08-20T14:18:31;5.32;;;2.38;;
10201;SDS011;5143;42.584;23.164;2023-08-20T14:20:57;4.50;;;2.40;;
10201;SDS011;5143;42.584;23.164;2023-08-20T14:23:24;5.32;;;2.30;;
10201;SDS011;5143;42.584;23.164;2023-08-20T14:25:51;4.93;;;2.60;;
10201;SDS011;5143;42.584;23.164;2023-08-20T14:28:19;4.55;;;2.25;;
10201;SDS011;5143;42.584;23.164;2023-08-20T14:30:46;4.30;;;2.65;;
10201;SDS011;5143;42.584;23.164;2023-08-20T14:33:15;3.20;;;2.38;;
10201;SDS011;5143;42.584;23.164;2023-08-20T14:35:42;5.53;;;2.63;;
10201;SDS011;5143;42.584;23.164;2023-08-20T14:38:09;2.78;;;2.13;;
10201;SDS011;5143;42.584;23.164;2023-08-20T14:40:37;7.88;;;2.70;;
10201;SDS011;5143;42.584;23.164;2023-08-20T14:43:05;5.63;;;2.58;;
10201;SDS011;5143;42.584;23.164;2023-08-20T14:45:32;5.13;;;2.20;;
10201;SDS011;5143;42.584;23.164;2023-08-20T14:47:59;3.38;;;2.28;;
10201;SDS011;5143;42.584;23.164;2023-08-20T14:50:28;3.28;;;2.50;;
10201;SDS011;5143;42.584;23.164;2023-08-20T14:52:54;5.90;;;2.30;;
10201;SDS011;5143;42.584;23.164;2023-08-20T14:55:21;8.07;;;2.40;;